Wetterdaten: Woche 07.09.20 - 13.09.20 (KW37)
Datum Zeit Temp. Aussen Temp. o. S. Temp +5cm Feuchte Auss Luftdruck Regen Sonnenschein Regendauer Solar Windben Empfang
07.09.2020 00:00 11,0 C 9,3 C 8,9 C 88 % 1022,3 hPa 0,0 l/m 0,00 h 0,00 h 0 W/m 0,0 km/h (0 Bft) 98,11 %
07.09.2020 01:00 10,4 C 8,8 C 8,5 C 89 % 1022,5 hPa 0,0 l/m 0,00 h 0,00 h 0 W/m 0,0 km/h (0 Bft) 92,25 %
07.09.2020 02:00 9,9 C 8,4 C 8,2 C 91 % 1022,6 hPa 0,0 l/m 0,00 h 0,00 h 0 W/m 0,0 km/h (0 Bft) 98,79 %
07.09.2020 03:00 9,5 C 8,3 C 7,9 C 92 % 1022,8 hPa 0,0 l/m 0,00 h 0,00 h 0 W/m 0,0 km/h (0 Bft) 98,08 %
07.09.2020 04:00 9,2 C 8,0 C 7,6 C 94 % 1022,8 hPa 0,0 l/m 0,00 h 0,00 h 0 W/m 0,0 km/h (0 Bft) 97,86 %
07.09.2020 05:00 8,9 C 7,3 C 7,2 C 94 % 1022,7 hPa 0,0 l/m 0,00 h 0,00 h 0 W/m 0,0 km/h (0 Bft) 95,87 %
07.09.2020 06:00 8,7 C 7,7 C 7,5 C 95 % 1023,0 hPa 0,0 l/m 0,00 h 0,00 h 0 W/m 0,0 km/h (0 Bft) 96,59 %
07.09.2020 07:00 9,0 C 8,2 C 8,2 C 96 % 1023,5 hPa 0,0 l/m 0,00 h 0,00 h 12 W/m 0,4 km/h (0 Bft) 95,42 %
07.09.2020 08:00 9,8 C 10,0 C 9,4 C 98 % 1024,2 hPa 0,0 l/m 0,00 h 0,00 h 31 W/m 0,5 km/h (0 Bft) 98,75 %
07.09.2020 09:00 11,5 C 16,0 C 13,0 C 99 % 1024,8 hPa 0,0 l/m 0,77 h 0,00 h 281 W/m 2,8 km/h (1 Bft) 97,36 %
07.09.2020 10:00 15,5 C 22,9 C 18,5 C 95 % 1025,0 hPa 0,0 l/m 1,00 h 0,00 h 500 W/m 7,3 km/h (2 Bft) 95,70 %
07.09.2020 11:00 18,6 C 23,7 C 16,4 C 77 % 1025,0 hPa 0,0 l/m 0,77 h 0,00 h 554 W/m 8,6 km/h (2 Bft) 97,65 %
07.09.2020 12:00 20,9 C 26,8 C 17,8 C 66 % 1024,9 hPa 0,0 l/m 1,00 h 0,00 h 767 W/m 14,0 km/h (3 Bft) 95,62 %
07.09.2020 13:00 21,5 C 23,7 C 18,4 C 62 % 1024,5 hPa 0,0 l/m 0,60 h 0,00 h 480 W/m 12,3 km/h (3 Bft) 98,75 %
07.09.2020 14:00 21,3 C 25,1 C 19,3 C 64 % 1024,5 hPa 0,0 l/m 0,60 h 0,00 h 522 W/m 8,7 km/h (2 Bft) 99,22 %
07.09.2020 15:00 21,8 C 24,5 C 18,9 C 62 % 1024,3 hPa 0,0 l/m 0,57 h 0,00 h 431 W/m 8,0 km/h (2 Bft) 94,11 %
07.09.2020 16:00 23,2 C 27,1 C 20,7 C 57 % 1024,2 hPa 0,0 l/m 1,00 h 0,00 h 572 W/m 10,1 km/h (2 Bft) 99,50 %
07.09.2020 17:00 23,2 C 25,2 C 19,8 C 55 % 1024,1 hPa 0,0 l/m 1,00 h 0,00 h 409 W/m 10,3 km/h (2 Bft) 98,51 %
07.09.2020 18:00 21,9 C 20,3 C 18,5 C 57 % 1024,1 hPa 0,0 l/m 0,17 h 0,00 h 71 W/m 7,9 km/h (2 Bft) 95,97 %
07.09.2020 19:00 20,1 C 18,1 C 16,6 C 62 % 1024,1 hPa 0,0 l/m 0,00 h 0,00 h 14 W/m 4,7 km/h (1 Bft) 98,65 %
07.09.2020 20:00 18,0 C 15,2 C 13,5 C 69 % 1024,3 hPa 0,0 l/m 0,00 h 0,00 h 2 W/m 0,4 km/h (0 Bft) 97,08 %
07.09.2020 21:00 15,7 C 12,9 C 12,0 C 78 % 1024,6 hPa 0,0 l/m 0,00 h 0,00 h 0 W/m 0,2 km/h (0 Bft) 98,36 %
07.09.2020 22:00 14,6 C 13,7 C 12,2 C 81 % 1024,7 hPa 0,0 l/m 0,00 h 0,00 h 0 W/m 1,4 km/h (1 Bft) 96,94 %
07.09.2020 23:00 14,4 C 13,9 C 12,9 C 81 % 1025,0 hPa 0,0 l/m 0,00 h 0,00 h 0 W/m 6,4 km/h (2 Bft) 96,73 %
08.09.2020 00:00 14,6 C 13,7 C 13,1 C 80 % 1025,1 hPa 0,0 l/m 0,00 h 0,00 h 0 W/m 6,7 km/h (2 Bft) 97,94 %
08.09.2020 01:00 14,3 C 13,1 C 12,8 C 81 % 1025,0 hPa 0,0 l/m 0,00 h 0,00 h 0 W/m 5,4 km/h (1 Bft) 98,30 %
08.09.2020 02:00 13,9 C 12,8 C 12,7 C 82 % 1024,7 hPa 0,0 l/m 0,00 h 0,00 h 0 W/m 12,0 km/h (2 Bft) 97,01 %
08.09.2020 03:00 13,6 C 12,5 C 12,2 C 82 % 1024,7 hPa 0,0 l/m 0,00 h 0,00 h 0 W/m 8,3 km/h (2 Bft) 95,94 %
08.09.2020 04:00 13,3 C 12,2 C 11,9 C 83 % 1024,9 hPa 0,0 l/m 0,00 h 0,00 h 0 W/m 9,9 km/h (2 Bft) 99,57 %
08.09.2020 05:00 13,0 C 11,8 C 11,6 C 84 % 1025,1 hPa 0,0 l/m 0,00 h 0,00 h 0 W/m 3,3 km/h (1 Bft) 97,51 %
08.09.2020 06:00 12,7 C 11,7 C 11,2 C 86 % 1025,1 hPa 0,0 l/m 0,00 h 0,00 h 0 W/m 4,0 km/h (1 Bft) 96,17 %
08.09.2020 07:00 12,8 C 12,8 C 12,2 C 88 % 1025,2 hPa 0,0 l/m 0,00 h 0,00 h 19 W/m 8,9 km/h (2 Bft) 98,50 %
08.09.2020 08:00 14,1 C 14,7 C 13,8 C 88 % 1025,4 hPa 0,0 l/m 0,00 h 0,00 h 66 W/m 11,1 km/h (2 Bft) 96,44 %
08.09.2020 09:00 15,9 C 16,4 C 15,4 C 87 % 1025,7 hPa 0,0 l/m 0,00 h 0,00 h 134 W/m 15,7 km/h (3 Bft) 98,99 %
08.09.2020 10:00 17,2 C 17,9 C 16,6 C 86 % 1026,0 hPa 0,0 l/m 0,00 h 0,00 h 171 W/m 13,4 km/h (3 Bft) 97,64 %
08.09.2020 11:00 18,8 C 20,1 C 18,4 C 84 % 1026,1 hPa 0,0 l/m 0,23 h 0,00 h 261 W/m 10,8 km/h (2 Bft) 97,51 %
08.09.2020 12:00 19,6 C 19,6 C 18,5 C 81 % 1026,2 hPa 0,0 l/m 0,00 h 0,00 h 162 W/m 11,5 km/h (2 Bft) 97,36 %
08.09.2020 13:00 20,1 C 20,2 C 19,0 C 82 % 1026,3 hPa 0,0 l/m 0,00 h 0,00 h 157 W/m 8,7 km/h (2 Bft) 96,30 %
08.09.2020 14:00 20,5 C 20,9 C 19,4 C 81 % 1026,1 hPa 0,0 l/m 0,00 h 0,00 h 202 W/m 11,7 km/h (2 Bft) 99,78 %
08.09.2020 15:00 20,4 C 20,1 C 19,0 C 81 % 1026,2 hPa 0,0 l/m 0,00 h 0,00 h 145 W/m 10,0 km/h (2 Bft) 96,32 %
08.09.2020 16:00 21,1 C 22,5 C 20,1 C 80 % 1026,0 hPa 0,0 l/m 0,73 h 0,00 h 300 W/m 10,6 km/h (2 Bft) 96,43 %
08.09.2020 17:00 22,2 C 24,4 C 19,5 C 78 % 1025,8 hPa 0,0 l/m 1,00 h 0,00 h 376 W/m 8,6 km/h (2 Bft) 99,57 %
08.09.2020 18:00 21,1 C 19,6 C 18,2 C 80 % 1025,6 hPa 0,0 l/m 0,17 h 0,00 h 83 W/m 5,4 km/h (1 Bft) 96,83 %
08.09.2020 19:00 19,6 C 18,0 C 17,1 C 84 % 1025,6 hPa 0,0 l/m 0,00 h 0,00 h 23 W/m 0,4 km/h (0 Bft) 96,87 %
08.09.2020 20:00 18,3 C 15,6 C 14,9 C 86 % 1025,6 hPa 0,0 l/m 0,00 h 0,00 h 4 W/m 0,0 km/h (0 Bft) 99,57 %
08.09.2020 21:00 16,7 C 14,1 C 13,8 C 90 % 1025,7 hPa 0,0 l/m 0,00 h 0,00 h 0 W/m 0,0 km/h (0 Bft) 95,45 %
08.09.2020 22:00 15,6 C 13,4 C 13,0 C 92 % 1025,7 hPa 0,0 l/m 0,00 h 0,00 h 0 W/m 0,0 km/h (0 Bft) 98,72 %
08.09.2020 23:00 14,8 C 13,1 C 12,8 C 93 % 1025,6 hPa 0,0 l/m 0,00 h 0,00 h 0 W/m 0,0 km/h (0 Bft) 96,64 %
09.09.2020 00:00 14,3 C 12,7 C 12,3 C 93 % 1025,5 hPa 0,0 l/m 0,00 h 0,00 h 0 W/m 0,0 km/h (0 Bft) 93,40 %
09.09.2020 01:00 13,8 C 12,2 C 12,0 C 94 % 1025,2 hPa 0,0 l/m 0,00 h 0,00 h 0 W/m 0,0 km/h (0 Bft) 99,15 %
09.09.2020 02:00 14,1 C 13,7 C 13,2 C 96 % 1024,9 hPa 0,0 l/m 0,00 h 0,00 h 0 W/m 0,2 km/h (0 Bft) 98,01 %
09.09.2020 03:00 15,0 C 14,4 C 13,9 C 98 % 1024,1 hPa 0,0 l/m 0,00 h 0,00 h 0 W/m 0,6 km/h (0 Bft) 96,30 %
09.09.2020 04:00 14,9 C 13,9 C 13,9 C 98 % 1023,6 hPa 0,0 l/m 0,00 h 0,00 h 0 W/m 0,9 km/h (0 Bft) 98,15 %
09.09.2020 05:00 14,7 C 13,4 C 13,1 C 98 % 1023,1 hPa 0,0 l/m 0,00 h 0,00 h 0 W/m 0,0 km/h (0 Bft) 98,86 %
09.09.2020 06:00 14,2 C 12,8 C 12,8 C 98 % 1022,7 hPa 0,0 l/m 0,00 h 0,00 h 0 W/m 0,0 km/h (0 Bft) 96,27 %
09.09.2020 07:00 14,1 C 13,3 C 13,1 C 98 % 1022,7 hPa 0,0 l/m 0,00 h 0,00 h 13 W/m 1,9 km/h (1 Bft) 96,86 %
09.09.2020 08:00 14,5 C 14,6 C 14,1 C 99 % 1022,5 hPa 0,0 l/m 0,00 h 0,00 h 51 W/m 2,9 km/h (1 Bft) 98,80 %
09.09.2020 09:00 15,5 C 16,3 C 15,5 C 99 % 1022,4 hPa 0,0 l/m 0,00 h 0,00 h 93 W/m 5,5 km/h (1 Bft) 97,36 %
09.09.2020 10:00 17,6 C 22,2 C 18,8 C 100 % 1022,1 hPa 0,0 l/m 0,73 h 0,00 h 319 W/m 11,8 km/h (2 Bft) 96,29 %
09.09.2020 11:00 21,7 C 25,4 C 20,8 C 88 % 1021,9 hPa 0,0 l/m 0,60 h 0,00 h 416 W/m 12,3 km/h (3 Bft) 98,15 %
09.09.2020 12:00 23,0 C 24,6 C 21,9 C 82 % 1021,7 hPa 0,0 l/m 0,33 h 0,00 h 342 W/m 10,9 km/h (2 Bft) 99,23 %
09.09.2020 13:00 23,2 C 23,4 C 21,4 C 81 % 1021,4 hPa 0,0 l/m 0,03 h 0,00 h 215 W/m 11,2 km/h (2 Bft) 95,67 %
09.09.2020 14:00 22,9 C 24,6 C 21,9 C 82 % 1021,2 hPa 0,0 l/m 0,40 h 0,00 h 361 W/m 10,4 km/h (2 Bft) 97,36 %
09.09.2020 15:00 24,2 C 25,9 C 22,5 C 77 % 1020,9 hPa 0,0 l/m 0,50 h 0,00 h 423 W/m 13,6 km/h (3 Bft) 99,43 %
09.09.2020 16:00 22,9 C 22,8 C 21,2 C 80 % 1020,8 hPa 0,0 l/m 0,20 h 0,00 h 165 W/m 7,9 km/h (2 Bft) 95,16 %
09.09.2020 17:00 23,4 C 23,7 C 21,5 C 78 % 1020,3 hPa 0,0 l/m 0,20 h 0,00 h 154 W/m 9,2 km/h (2 Bft) 97,01 %
09.09.2020 18:00 23,0 C 22,0 C 20,8 C 76 % 1020,1 hPa 0,0 l/m 0,00 h 0,03 h 43 W/m 6,6 km/h (2 Bft) 98,82 %
09.09.2020 19:00 22,0 C 20,6 C 19,8 C 78 % 1020,1 hPa 0,0 l/m 0,00 h 0,00 h 12 W/m 6,2 km/h (2 Bft) 96,34 %
09.09.2020 20:00 20,7 C 18,9 C 18,5 C 85 % 1020,9 hPa 0,0 l/m 0,00 h 0,00 h 0 W/m 9,9 km/h (2 Bft) 97,00 %
09.09.2020 21:00 19,2 C 16,9 C 17,1 C 92 % 1021,5 hPa 0,0 l/m 0,00 h 0,03 h 0 W/m 3,5 km/h (1 Bft) 97,93 %
09.09.2020 22:00 18,1 C 16,0 C 16,4 C 94 % 1022,2 hPa 0,0 l/m 0,00 h 0,17 h 0 W/m 4,1 km/h (1 Bft) 98,65 %
09.09.2020 23:00 17,2 C 16,1 C 16,1 C 95 % 1022,6 hPa 0,0 l/m 0,00 h 0,00 h 0 W/m 1,9 km/h (1 Bft) 95,82 %
10.09.2020 00:00 16,4 C 15,5 C 15,5 C 93 % 1022,8 hPa 0,0 l/m 0,00 h 0,00 h 0 W/m 5,0 km/h (1 Bft) 98,30 %
10.09.2020 01:00 15,9 C 14,8 C 14,9 C 90 % 1023,4 hPa 0,0 l/m 0,00 h 0,00 h 0 W/m 10,5 km/h (2 Bft) 100,00 %
10.09.2020 02:00 15,3 C 14,1 C 14,4 C 90 % 1023,4 hPa 0,0 l/m 0,00 h 0,00 h 0 W/m 7,2 km/h (2 Bft) 99,05 %
10.09.2020 03:00 14,8 C 13,7 C 13,8 C 91 % 1023,3 hPa 0,0 l/m 0,00 h 0,00 h 0 W/m 1,6 km/h (1 Bft) 98,68 %
10.09.2020 04:00 14,3 C 12,6 C 12,7 C 91 % 1023,5 hPa 0,0 l/m 0,00 h 0,00 h 0 W/m 0,3 km/h (0 Bft) 100,00 %
10.09.2020 05:00 13,6 C 11,7 C 11,9 C 91 % 1023,5 hPa 0,0 l/m 0,00 h 0,00 h 0 W/m 0,0 km/h (0 Bft) 97,59 %
10.09.2020 06:00 12,8 C 10,8 C 10,9 C 92 % 1023,6 hPa 0,0 l/m 0,00 h 0,00 h 0 W/m 0,0 km/h (0 Bft) 99,56 %
10.09.2020 07:00 11,8 C 10,3 C 10,0 C 93 % 1023,8 hPa 0,0 l/m 0,00 h 0,00 h 13 W/m 0,0 km/h (0 Bft) 96,55 %
10.09.2020 08:00 11,5 C 11,2 C 10,7 C 94 % 1024,0 hPa 0,0 l/m 0,00 h 0,00 h 30 W/m 0,0 km/h (0 Bft) 99,23 %
10.09.2020 09:00 12,8 C 17,7 C 13,7 C 97 % 1024,1 hPa 0,0 l/m 0,53 h 0,00 h 229 W/m 2,2 km/h (1 Bft) 96,61 %
10.09.2020 10:00 16,8 C 24,2 C 18,6 C 84 % 1024,1 hPa 0,0 l/m 1,00 h 0,00 h 530 W/m 5,9 km/h (2 Bft) 95,73 %
10.09.2020 11:00 19,5 C 26,1 C 16,3 C 68 % 1023,9 hPa 0,0 l/m 1,00 h 0,00 h 655 W/m 7,4 km/h (2 Bft) 97,12 %
10.09.2020 12:00 21,0 C 27,6 C 17,6 C 61 % 1023,4 hPa 0,0 l/m 1,00 h 0,00 h 751 W/m 11,1 km/h (2 Bft) 99,00 %
10.09.2020 13:00 21,9 C 27,8 C 19,3 C 58 % 1023,0 hPa 0,0 l/m 1,00 h 0,00 h 777 W/m 9,3 km/h (2 Bft) 98,29 %
10.09.2020 14:00 22,9 C 28,0 C 20,5 C 55 % 1022,4 hPa 0,0 l/m 1,00 h 0,00 h 742 W/m 8,6 km/h (2 Bft) 95,77 %
10.09.2020 15:00 23,1 C 27,3 C 20,6 C 54 % 1021,8 hPa 0,0 l/m 0,97 h 0,00 h 665 W/m 9,1 km/h (2 Bft) 97,17 %
10.09.2020 16:00 22,4 C 23,6 C 20,2 C 57 % 1021,2 hPa 0,0 l/m 0,57 h 0,00 h 340 W/m 5,5 km/h (1 Bft) 97,37 %
10.09.2020 17:00 21,7 C 23,0 C 18,6 C 59 % 1020,6 hPa 0,0 l/m 0,77 h 0,00 h 318 W/m 4,9 km/h (1 Bft) 96,02 %
10.09.2020 18:00 20,4 C 18,2 C 16,1 C 60 % 1020,1 hPa 0,0 l/m 0,07 h 0,00 h 58 W/m 4,6 km/h (1 Bft) 98,83 %
10.09.2020 19:00 18,4 C 16,1 C 14,6 C 65 % 1019,9 hPa 0,0 l/m 0,00 h 0,00 h 17 W/m 1,8 km/h (1 Bft) 97,99 %
10.09.2020 20:00 16,5 C 13,6 C 12,6 C 69 % 1019,9 hPa 0,0 l/m 0,00 h 0,00 h 0 W/m 0,0 km/h (0 Bft) 95,30 %
10.09.2020 21:00 14,5 C 11,7 C 11,1 C 76 % 1020,0 hPa 0,0 l/m 0,00 h 0,00 h 0 W/m 0,0 km/h (0 Bft) 98,50 %
10.09.2020 22:00 13,0 C 10,7 C 10,3 C 80 % 1019,9 hPa 0,0 l/m 0,00 h 0,00 h 0 W/m 0,0 km/h (0 Bft) 98,36 %
10.09.2020 23:00 11,9 C 10,1 C 9,7 C 83 % 1019,6 hPa 0,0 l/m 0,00 h 0,00 h 0 W/m 0,0 km/h (0 Bft) 96,65 %
11.09.2020 00:00 11,1 C 9,2 C 8,9 C 85 % 1019,4 hPa 0,0 l/m 0,00 h 0,00 h 0 W/m 0,0 km/h (0 Bft) 97,46 %
11.09.2020 01:00 10,4 C 8,5 C 8,4 C 87 % 1019,2 hPa 0,0 l/m 0,00 h 0,00 h 0 W/m 0,0 km/h (0 Bft) 96,72 %
11.09.2020 02:00 9,7 C 8,2 C 8,2 C 89 % 1018,9 hPa 0,0 l/m 0,00 h 0,00 h 0 W/m 0,0 km/h (0 Bft) 95,70 %
11.09.2020 03:00 9,2 C 7,6 C 7,5 C 90 % 1018,6 hPa 0,0 l/m 0,00 h 0,00 h 0 W/m 0,0 km/h (0 Bft) 96,65 %
11.09.2020 04:00 8,8 C 7,2 C 7,2 C 91 % 1018,4 hPa 0,0 l/m 0,00 h 0,00 h 0 W/m 0,0 km/h (0 Bft) 99,08 %
11.09.2020 05:00 8,6 C 7,8 C 7,6 C 93 % 1018,0 hPa 0,0 l/m 0,00 h 0,00 h 0 W/m 0,2 km/h (0 Bft) 98,72 %
11.09.2020 06:00 8,8 C 7,7 C 7,4 C 95 % 1017,9 hPa 0,0 l/m 0,00 h 0,00 h 0 W/m 0,0 km/h (0 Bft) 93,20 %
11.09.2020 07:00 9,1 C 8,6 C 8,5 C 96 % 1017,8 hPa 0,0 l/m 0,00 h 0,00 h 18 W/m 1,1 km/h (0 Bft) 97,86 %
11.09.2020 08:00 9,8 C 10,3 C 9,7 C 97 % 1018,0 hPa 0,0 l/m 0,00 h 0,00 h 52 W/m 4,4 km/h (1 Bft) 98,86 %
11.09.2020 09:00 11,4 C 15,0 C 12,3 C 98 % 1018,4 hPa 0,0 l/m 0,53 h 0,00 h 204 W/m 8,4 km/h (2 Bft) 96,37 %
11.09.2020 10:00 14,3 C 18,8 C 14,6 C 90 % 1018,6 hPa 0,0 l/m 0,77 h 0,00 h 357 W/m 11,5 km/h (2 Bft) 98,01 %
11.09.2020 11:00 18,0 C 23,2 C 16,7 C 76 % 1018,5 hPa 0,0 l/m 1,00 h 0,00 h 526 W/m 13,5 km/h (3 Bft) 97,43 %
11.09.2020 12:00 20,6 C 26,1 C 18,9 C 66 % 1018,3 hPa 0,0 l/m 1,00 h 0,00 h 612 W/m 13,2 km/h (3 Bft) 98,75 %
11.09.2020 13:00 22,2 C 26,8 C 20,4 C 59 % 1017,8 hPa 0,0 l/m 1,00 h 0,00 h 625 W/m 13,5 km/h (3 Bft) 96,01 %
11.09.2020 14:00 23,2 C 27,5 C 21,5 C 58 % 1017,3 hPa 0,0 l/m 1,00 h 0,00 h 610 W/m 12,1 km/h (2 Bft) 97,44 %
11.09.2020 15:00 24,3 C 27,7 C 22,0 C 58 % 1017,0 hPa 0,0 l/m 1,00 h 0,00 h 544 W/m 10,2 km/h (2 Bft) 97,99 %
11.09.2020 16:00 25,3 C 27,7 C 22,7 C 57 % 1016,7 hPa 0,0 l/m 1,00 h 0,00 h 435 W/m 7,5 km/h (2 Bft) 94,87 %
11.09.2020 17:00 24,9 C 25,4 C 21,6 C 58 % 1016,4 hPa 0,0 l/m 1,00 h 0,00 h 282 W/m 7,9 km/h (2 Bft) 97,79 %
11.09.2020 18:00 23,4 C 21,6 C 19,2 C 64 % 1016,2 hPa 0,0 l/m 0,03 h 0,00 h 83 W/m 1,9 km/h (1 Bft) 99,78 %
11.09.2020 19:00 21,2 C 18,2 C 16,6 C 72 % 1016,0 hPa 0,0 l/m 0,00 h 0,00 h 21 W/m 0,0 km/h (0 Bft) 95,16 %
11.09.2020 20:00 18,5 C 15,7 C 14,6 C 79 % 1015,9 hPa 0,0 l/m 0,00 h 0,00 h 0 W/m 0,6 km/h (0 Bft) 96,88 %
11.09.2020 21:00 17,0 C 14,7 C 13,7 C 82 % 1016,2 hPa 0,0 l/m 0,00 h 0,00 h 0 W/m 0,2 km/h (0 Bft) 99,15 %
11.09.2020 22:00 15,7 C 13,3 C 12,8 C 86 % 1016,5 hPa 0,0 l/m 0,00 h 0,00 h 0 W/m 0,0 km/h (0 Bft) 97,15 %
11.09.2020 23:00 14,6 C 12,7 C 12,1 C 88 % 1016,5 hPa 0,0 l/m 0,00 h 0,00 h 0 W/m 0,1 km/h (0 Bft) 98,00 %
12.09.2020 00:00 13,8 C 12,0 C 11,5 C 88 % 1016,5 hPa 0,0 l/m 0,00 h 0,00 h 0 W/m 0,0 km/h (0 Bft) 96,57 %
12.09.2020 01:00 13,1 C 11,6 C 11,1 C 90 % 1016,3 hPa 0,0 l/m 0,00 h 0,00 h 0 W/m 0,2 km/h (0 Bft) 97,44 %
12.09.2020 02:00 12,6 C 11,0 C 10,7 C 92 % 1016,4 hPa 0,0 l/m 0,00 h 0,00 h 0 W/m 0,0 km/h (0 Bft) 97,51 %
12.09.2020 03:00 12,0 C 10,6 C 10,3 C 93 % 1016,6 hPa 0,0 l/m 0,00 h 0,00 h 0 W/m 0,1 km/h (0 Bft) 98,65 %
12.09.2020 04:00 11,7 C 10,3 C 10,0 C 94 % 1016,7 hPa 0,0 l/m 0,00 h 0,00 h 0 W/m 0,1 km/h (0 Bft) 95,52 %
12.09.2020 05:00 11,4 C 10,2 C 9,8 C 95 % 1017,0 hPa 0,0 l/m 0,00 h 0,00 h 0 W/m 0,3 km/h (0 Bft) 97,58 %
12.09.2020 06:00 11,4 C 10,5 C 10,0 C 96 % 1017,2 hPa 0,0 l/m 0,00 h 0,00 h 0 W/m 0,0 km/h (0 Bft) 98,27 %
12.09.2020 07:00 11,3 C 10,6 C 10,2 C 96 % 1017,7 hPa 0,0 l/m 0,00 h 0,00 h 16 W/m 0,9 km/h (0 Bft) 98,86 %
12.09.2020 08:00 11,9 C 12,1 C 11,7 C 97 % 1018,5 hPa 0,0 l/m 0,00 h 0,00 h 53 W/m 4,2 km/h (1 Bft) 94,59 %
12.09.2020 09:00 13,4 C 16,0 C 14,1 C 98 % 1019,1 hPa 0,0 l/m 0,57 h 0,00 h 204 W/m 10,1 km/h (2 Bft) 99,21 %
12.09.2020 10:00 16,4 C 20,3 C 17,6 C 87 % 1019,7 hPa 0,0 l/m 1,00 h 0,00 h 424 W/m 11,9 km/h (2 Bft) 97,79 %
12.09.2020 11:00 19,0 C 23,0 C 18,1 C 78 % 1020,1 hPa 0,0 l/m 1,00 h 0,00 h 551 W/m 13,4 km/h (3 Bft) 97,43 %
12.09.2020 12:00 20,5 C 24,9 C 18,9 C 71 % 1020,2 hPa 0,0 l/m 1,00 h 0,00 h 661 W/m 15,1 km/h (3 Bft) 96,21 %
12.09.2020 13:00 22,0 C 26,3 C 20,1 C 65 % 1020,4 hPa 0,0 l/m 1,00 h 0,00 h 706 W/m 14,6 km/h (3 Bft) 97,58 %
12.09.2020 14:00 23,0 C 27,5 C 20,4 C 62 % 1020,6 hPa 0,0 l/m 1,00 h 0,00 h 684 W/m 12,4 km/h (3 Bft) 98,08 %
12.09.2020 15:00 23,4 C 27,4 C 20,7 C 60 % 1020,6 hPa 0,0 l/m 1,00 h 0,00 h 628 W/m 10,8 km/h (2 Bft) 96,73 %
12.09.2020 16:00 23,6 C 26,5 C 21,6 C 60 % 1020,7 hPa 0,0 l/m 1,00 h 0,00 h 487 W/m 10,3 km/h (2 Bft) 97,65 %
12.09.2020 17:00 23,2 C 24,6 C 20,1 C 60 % 1021,0 hPa 0,0 l/m 1,00 h 0,00 h 339 W/m 8,0 km/h (2 Bft) 98,72 %
12.09.2020 18:00 21,6 C 19,8 C 18,5 C 64 % 1021,2 hPa 0,0 l/m 0,00 h 0,00 h 58 W/m 5,0 km/h (1 Bft) 96,24 %
12.09.2020 19:00 20,0 C 17,9 C 16,6 C 69 % 1021,6 hPa 0,0 l/m 0,00 h 0,00 h 24 W/m 0,9 km/h (0 Bft) 98,29 %
12.09.2020 20:00 18,1 C 15,3 C 14,4 C 76 % 1022,2 hPa 0,0 l/m 0,00 h 0,00 h 0 W/m 0,0 km/h (0 Bft) 98,86 %
12.09.2020 21:00 16,5 C 14,3 C 13,6 C 80 % 1023,0 hPa 0,0 l/m 0,00 h 0,00 h 0 W/m 0,0 km/h (0 Bft) 95,10 %
12.09.2020 22:00 15,3 C 12,9 C 12,4 C 84 % 1023,4 hPa 0,0 l/m 0,00 h 0,00 h 0 W/m 0,0 km/h (0 Bft) 98,16 %
12.09.2020 23:00 14,2 C 12,2 C 11,8 C 86 % 1023,6 hPa 0,0 l/m 0,00 h 0,00 h 0 W/m 0,0 km/h (0 Bft) 97,65 %
13.09.2020 00:00 13,3 C 11,5 C 11,1 C 87 % 1024,0 hPa 0,0 l/m 0,00 h 0,00 h 0 W/m 0,0 km/h (0 Bft) 97,76 %
13.09.2020 01:00 12,6 C 10,9 C 10,6 C 88 % 1024,3 hPa 0,0 l/m 0,00 h 0,00 h 0 W/m 0,0 km/h (0 Bft) 97,99 %
13.09.2020 02:00 12,3 C 11,5 C 10,7 C 92 % 1024,0 hPa 0,0 l/m 0,00 h 0,00 h 0 W/m 0,4 km/h (0 Bft) 97,64 %
13.09.2020 03:00 12,3 C 10,6 C 10,4 C 94 % 1024,1 hPa 0,0 l/m 0,00 h 0,00 h 0 W/m 0,0 km/h (0 Bft) 95,79 %
13.09.2020 04:00 11,7 C 10,2 C 10,0 C 94 % 1024,6 hPa 0,0 l/m 0,00 h 0,00 h 0 W/m 0,4 km/h (0 Bft) 98,86 %
13.09.2020 05:00 11,5 C 10,4 C 10,2 C 95 % 1024,7 hPa 0,0 l/m 0,00 h 0,00 h 0 W/m 0,2 km/h (0 Bft) 98,02 %
13.09.2020 06:00 11,7 C 10,9 C 10,6 C 96 % 1024,8 hPa 0,0 l/m 0,00 h 0,00 h 0 W/m 0,0 km/h (0 Bft) 96,71 %
13.09.2020 07:00 11,6 C 10,8 C 10,6 C 97 % 1025,1 hPa 0,0 l/m 0,00 h 0,00 h 16 W/m 0,0 km/h (0 Bft) 96,63 %
13.09.2020 08:00 11,7 C 12,1 C 11,5 C 97 % 1025,7 hPa 0,0 l/m 0,00 h 0,00 h 55 W/m 1,7 km/h (1 Bft) 98,88 %
13.09.2020 09:00 13,2 C 16,3 C 14,3 C 98 % 1026,1 hPa 0,0 l/m 0,57 h 0,00 h 191 W/m 7,1 km/h (2 Bft) 97,81 %
13.09.2020 10:00 16,8 C 21,9 C 18,4 C 91 % 1026,5 hPa 0,0 l/m 1,00 h 0,00 h 376 W/m 10,4 km/h (2 Bft) 96,14 %
13.09.2020 11:00 20,1 C 24,5 C 18,6 C 78 % 1026,8 hPa 0,0 l/m 1,00 h 0,00 h 479 W/m 11,4 km/h (2 Bft) 96,92 %
13.09.2020 12:00 22,1 C 26,8 C 19,8 C 70 % 1026,8 hPa 0,0 l/m 1,00 h 0,00 h 610 W/m 14,0 km/h (3 Bft) 98,58 %
13.09.2020 13:00 23,9 C 28,6 C 21,0 C 65 % 1026,6 hPa 0,0 l/m 1,00 h 0,00 h 621 W/m 10,3 km/h (2 Bft) 97,94 %
13.09.2020 14:00 24,4 C 27,8 C 21,2 C 64 % 1026,3 hPa 0,0 l/m 1,00 h 0,00 h 494 W/m 8,0 km/h (2 Bft) 96,24 %
13.09.2020 15:00 25,7 C 31,0 C 22,3 C 61 % 1025,8 hPa 0,0 l/m 1,00 h 0,00 h 637 W/m 6,7 km/h (2 Bft) 98,50 %
13.09.2020 16:00 27,0 C 30,5 C 24,2 C 59 % 1025,3 hPa 0,0 l/m 1,00 h 0,00 h 502 W/m 4,7 km/h (1 Bft) 98,80 %
13.09.2020 17:00 27,1 C 28,3 C 21,9 C 59 % 1025,0 hPa 0,0 l/m 0,97 h 0,00 h 321 W/m 3,3 km/h (1 Bft) 93,53 %
13.09.2020 18:00 25,4 C 22,8 C 19,9 C 61 % 1024,8 hPa 0,0 l/m 0,00 h 0,00 h 56 W/m 1,5 km/h (1 Bft) 99,42 %
13.09.2020 19:00 22,5 C 19,4 C 17,7 C 73 % 1024,8 hPa 0,0 l/m 0,00 h 0,00 h 18 W/m 0,0 km/h (0 Bft) 99,00 %
13.09.2020 20:00 19,6 C 16,6 C 15,6 C 81 % 1025,1 hPa 0,0 l/m 0,00 h 0,00 h 0 W/m 0,0 km/h (0 Bft) 95,79 %
13.09.2020 21:00 17,7 C 15,3 C 14,5 C 85 % 1025,6 hPa 0,0 l/m 0,00 h 0,00 h 0 W/m 0,0 km/h (0 Bft) 98,01 %
13.09.2020 22:00 16,4 C 14,2 C 13,6 C 87 % 1025,8 hPa 0,0 l/m 0,00 h 0,00 h 0 W/m 0,0 km/h (0 Bft) 97,93 %
13.09.2020 23:00 15,4 C 13,7 C 13,0 C 88 % 1025,7 hPa 0,0 l/m 0,00 h 0,00 h 0 W/m 0,0 km/h (0 Bft) 96,94 %
Min-Datum _ 11.09.20 07.09.20 07.09.20 10.09.20 11.09.20 - - - - 07.09.20 09.09.20
_ Min-Zeit 05:12 05:12 04:38 14:50 20:14 - - - - 00:00 00:02
Minimum _ 8,4 C 7,2 C 7,2 C 51 % 1015,8 hPa - - - - 0,0 km/h (0 Bft) 14,29 %
Max-Datum _ 13.09.20 13.09.20 13.09.20 07.09.20 13.09.20 07.09.20 07.09.20 09.09.20 09.09.20 08.09.20 07.09.20
_ Max-Zeit 16:52 15:26 16:44 10:02 11:56 00:00 12:08 18:44 14:46 09:50 00:00
Maximum _ 27,2 C 32,2 C 26,7 C 100 % 1026,9 hPa 0,0 l/m 0,07 h 0,03 h 921 W/m 29,0 km/h
S-SO (5 Bft)
100,00 %
Durchschnitt _ 16,8 C 17,1 C 15,0 C 82 % 1022,4 hPa #0,0 l/m #45:56 h #14 min. 302 W/m 4,8 km/h (1 Bft) 97,44 %
© 2020 W. Hausmann